»·PEaware :: SWA9008 KSAN-KSNA

SWA9008 :: KSAN-KSNA

FLIGHT INFORMATION

Flight Status: Arrived
Operator:
Southwest Airlines
More flights by this operator :: More flights under this callsign
Pilot: Kevin M. (7)
Aircraft: BOEING 737-800
(B738)
More flights by this aircraft type
Origin: KSAN San Diego Intl-Lindbergh
United States
Destination: KSNA John Wayne-Orange Co
United States
More flights between these airports :: More routes between these airports
Route: +CWARD2 SLI
File this flight plan on PilotEdge
Remarks:
Altitude:
(Current/Filed)
10,000ft
Speed:
(Current/Filed)
470kts
Departed: 04-Oct-18 01:39 PM
Arrived: 04-Oct-18 02:26 PM
Distance/Time
Traveled:
66nm/0:46
Distance/Time
To Go:
Arrived

Flight Plot

Page will automatically refresh every two minutes.

Flight plan parsing failed; only flown route is shown


Map Options




Map Legend


Flown Route
Filed Route
Departure Airport
Arrival Airport
Navaid (VOR, NDB)
Fix

Horizontal Profiles

Position Reports

Time Latitude Longitude Heading Altitude Ground
Speed
04-Oct-18 12:49 32.733255 -117.196048 200 25ft 0kts
04-Oct-18 12:50 32.733255 -117.196048 200 25ft 0kts
04-Oct-18 12:51 32.733255 -117.196048 200 25ft 0kts
04-Oct-18 12:52 32.733255 -117.196048 200 25ft 0kts
04-Oct-18 12:53 32.733255 -117.196048 200 25ft 0kts
04-Oct-18 12:54 32.733255 -117.196048 200 25ft 0kts
04-Oct-18 12:55 32.733255 -117.196048 200 25ft 0kts
04-Oct-18 12:56 32.733255 -117.196048 200 25ft 0kts
04-Oct-18 12:57 32.733255 -117.196048 200 25ft 0kts
04-Oct-18 12:58 32.733255 -117.196048 200 25ft 0kts
04-Oct-18 12:59 32.733255 -117.196048 200 25ft 0kts
04-Oct-18 13:00 32.733255 -117.196048 200 25ft 0kts
04-Oct-18 13:01 32.733255 -117.196048 200 25ft 0kts
04-Oct-18 13:02 32.733255 -117.196048 200 25ft 0kts
04-Oct-18 13:03 32.733255 -117.196048 200 25ft 0kts
04-Oct-18 13:04 32.733255 -117.196048 200 25ft 0kts
04-Oct-18 13:05 32.733255 -117.196048 200 25ft 0kts
04-Oct-18 13:06 32.733255 -117.196048 200 25ft 0kts
04-Oct-18 13:07 32.733255 -117.196048 200 25ft 0kts
04-Oct-18 13:08 32.733255 -117.196048 200 25ft 0kts
04-Oct-18 13:09 32.733255 -117.196048 200 25ft 0kts
04-Oct-18 13:10 32.733255 -117.196048 200 25ft 0kts
04-Oct-18 13:11 32.733255 -117.196048 200 25ft 0kts
04-Oct-18 13:12 32.733255 -117.196048 200 25ft 0kts
04-Oct-18 13:13 32.733255 -117.196048 200 25ft 0kts
04-Oct-18 13:14 32.733255 -117.196048 200 25ft 0kts
04-Oct-18 13:15 32.733255 -117.196048 200 25ft 0kts
04-Oct-18 13:16 32.733255 -117.196048 200 25ft 0kts
04-Oct-18 13:17 32.733255 -117.196048 200 25ft 0kts
04-Oct-18 13:18 32.733255 -117.196048 200 25ft 0kts
04-Oct-18 13:19 32.733255 -117.196048 200 25ft 0kts
04-Oct-18 13:20 32.733255 -117.196048 200 25ft 0kts
04-Oct-18 13:21 32.733255 -117.196048 200 25ft 0kts
04-Oct-18 13:22 32.733255 -117.196048 200 25ft 0kts
04-Oct-18 13:23 32.733255 -117.196048 200 25ft 0kts
04-Oct-18 13:24 32.733255 -117.196048 200 25ft 0kts
04-Oct-18 13:25 32.733255 -117.196048 200 25ft 0kts
04-Oct-18 13:26 32.733255 -117.196048 200 25ft 0kts
04-Oct-18 13:27 32.733255 -117.196048 200 25ft 0kts
04-Oct-18 13:28 32.733255 -117.196048 200 25ft 0kts
04-Oct-18 13:29 32.733255 -117.196048 200 25ft 0kts
04-Oct-18 13:30 32.733255 -117.196048 200 25ft 0kts
04-Oct-18 13:31 32.733255 -117.196048 200 25ft 0kts
04-Oct-18 13:32 32.733466 -117.195957 199 25ft 2kts
04-Oct-18 13:33 32.733990 -117.195901 138 25ft 2kts
04-Oct-18 13:34 32.734026 -117.195945 129 25ft 0kts
04-Oct-18 13:35 32.733300 -117.192728 107 25ft 20kts
04-Oct-18 13:36 32.731483 -117.185311 105 25ft 27kts
04-Oct-18 13:37 32.729501 -117.177351 102 25ft 2kts
04-Oct-18 13:38 32.729471 -117.176951 85 25ft 0kts
04-Oct-18 13:39 32.729471 -117.176951 85 25ft 0kts
04-Oct-18 13:40 32.729648 -117.176072 65 25ft 14kts
04-Oct-18 13:41 32.733964 -117.191291 285 29ft 158kts
04-Oct-18 13:42 32.747388 -117.235229 290 2583ft 184kts
04-Oct-18 13:43 32.790776 -117.305195 306 5988ft 261kts
04-Oct-18 13:44 32.820168 -117.349844 305 8646ft 248kts
04-Oct-18 13:45 32.851915 -117.399171 304 10000ft 241kts
04-Oct-18 13:46 32.885969 -117.452233 305 10020ft 274kts
04-Oct-18 13:47 32.927415 -117.516785 305 9977ft 310kts
04-Oct-18 13:48 32.973220 -117.588265 305 10015ft 376kts
04-Oct-18 13:49 33.023844 -117.667298 305 10071ft 374kts
04-Oct-18 13:50 33.076171 -117.743879 316 10071ft 375kts
04-Oct-18 13:51 33.122823 -117.790350 318 10098ft 378kts
04-Oct-18 13:52 33.182794 -117.849237 325 10077ft 349kts
04-Oct-18 13:53 33.212289 -117.864826 342 10100ft 338kts
04-Oct-18 13:54 33.212289 -117.864826 342 10100ft 338kts
04-Oct-18 13:55 33.212289 -117.864826 342 10100ft 338kts
04-Oct-18 13:56 33.212289 -117.864826 342 10100ft 338kts
04-Oct-18 13:57 33.212289 -117.864826 342 10100ft 338kts
04-Oct-18 13:58 33.212289 -117.864826 342 10100ft 338kts
04-Oct-18 13:59 33.212289 -117.864826 342 10100ft 338kts
04-Oct-18 14:00 33.212289 -117.864826 342 10100ft 338kts
04-Oct-18 14:01 33.212289 -117.864826 342 10100ft 338kts
04-Oct-18 14:02 33.212289 -117.864826 342 10100ft 338kts
04-Oct-18 14:03 33.212289 -117.864826 342 10100ft 338kts
04-Oct-18 14:04 33.212289 -117.864826 342 10100ft 338kts
04-Oct-18 14:05 33.259642 -117.877796 345 10083ft 302kts
04-Oct-18 14:06 33.326892 -117.894819 345 10098ft 293kts
04-Oct-18 14:07 33.401156 -117.914223 340 9301ft 302kts
04-Oct-18 14:08 33.481871 -117.944639 340 7427ft 309kts
04-Oct-18 14:09 33.558910 -117.972680 341 6016ft 299kts
04-Oct-18 14:10 33.622654 -117.995884 340 6004ft 277kts
04-Oct-18 14:11 33.674498 -118.014770 340 5998ft 245kts
04-Oct-18 14:12 33.710898 -118.028083 340 6009ft 239kts
04-Oct-18 14:13 33.750346 -118.042539 340 6011ft 238kts
04-Oct-18 14:14 33.790564 -118.057342 342 6008ft 238kts
04-Oct-18 14:15 33.824488 -118.034772 82 5683ft 241kts
04-Oct-18 14:16 33.824488 -118.034772 82 5683ft 241kts
04-Oct-18 14:17 33.806597 -117.989211 147 5329ft 227kts
04-Oct-18 14:18 33.780648 -117.929805 111 4428ft 246kts
04-Oct-18 14:19 33.757786 -117.850830 111 3275ft 257kts
04-Oct-18 14:20 33.727095 -117.781598 158 3037ft 219kts
04-Oct-18 14:21 33.688074 -117.813855 244 2141ft 223kts
04-Oct-18 14:22 33.663571 -117.877553 243 2855ft 212kts
04-Oct-18 14:23 33.679210 -117.938045 337 3014ft 227kts
04-Oct-18 14:24 33.740011 -117.927353 30 3016ft 235kts
04-Oct-18 14:25 33.773230 -117.870292 122 2733ft 218kts
04-Oct-18 14:26 33.725019 -117.848803 171 1773ft 177kts
04-Oct-18 14:27 33.684955 -117.862848 208 178ft 145kts
04-Oct-18 14:28 33.669268 -117.871767 131 64ft 0kts
04-Oct-18 14:29 33.673817 -117.866701 28 64ft 35kts
04-Oct-18 14:30 33.680537 -117.861797 118 64ft 9kts

Navigation Log

Ident Type
Flight plan parsing failed, navigation log unavailable